Barstow, Illinois
Current Conditions -  °F | °C
As of 7:52 AM on Monday 24 Nov 2014 (Local Time) from KMLI Reporting Station
Light Snow Light Snow  
Wind Chill: 19°   Ceiling: 1000
Heat Index: 31°   Visibility: 0.75mi
Dew Point: 28°   Wind: 20mph
Humidity: 89%   Direction: 280°W
Pressure: 29.32"   Gusts: 33mph
Location:  41.52°N, 90.36°W
Report Text: KMLI 241352Z 28017G29KT 3/4SM R09/5000FT -SN BR BKN010 OVC014 M01/M02 A2932 RMK AO2 PK WND 27031/1257 SLP930 P0005 T10061022
Loading
Personal Weather Stations






























Interactive Weather Map New forecast layout! Learn more

10-Day Weather Forecast

Advertisements
Track Severe Weather on mobile